sensor_id;sensor_type;location;lat;lon;timestamp;P1;durP1;ratioP1;P2;durP2;ratioP2
28587;SDS011;15787;49.662;10.162;2023-05-16T00:00:05;0.00;;;0.00;;
28587;SDS011;15787;49.662;10.162;2023-05-16T00:02:41;0.00;;;0.00;;
28587;SDS011;15787;49.662;10.162;2023-05-16T00:05:14;0.00;;;0.00;;
28587;SDS011;15787;49.662;10.162;2023-05-16T00:07:48;0.00;;;0.00;;
28587;SDS011;15787;49.662;10.162;2023-05-16T00:10:22;0.10;;;0.10;;
28587;SDS011;15787;49.662;10.162;2023-05-16T00:12:57;0.20;;;0.20;;
28587;SDS011;15787;49.662;10.162;2023-05-16T00:15:32;0.00;;;0.00;;
28587;SDS011;15787;49.662;10.162;2023-05-16T00:18:06;0.00;;;0.00;;
28587;SDS011;15787;49.662;10.162;2023-05-16T00:20:40;0.00;;;0.00;;
28587;SDS011;15787;49.662;10.162;2023-05-16T00:23:13;0.00;;;0.00;;
28587;SDS011;15787;49.662;10.162;2023-05-16T00:25:49;0.98;;;0.98;;
28587;SDS011;15787;49.662;10.162;2023-05-16T00:28:22;0.00;;;0.00;;
28587;SDS011;15787;49.662;10.162;2023-05-16T00:30:55;0.00;;;0.00;;
28587;SDS011;15787;49.662;10.162;2023-05-16T00:33:28;0.00;;;0.00;;
28587;SDS011;15787;49.662;10.162;2023-05-16T00:36:01;0.10;;;0.10;;
28587;SDS011;15787;49.662;10.162;2023-05-16T00:38:35;0.00;;;0.00;;
28587;SDS011;15787;49.662;10.162;2023-05-16T00:41:10;0.00;;;0.00;;
28587;SDS011;15787;49.662;10.162;2023-05-16T00:43:43;0.00;;;0.00;;
28587;SDS011;15787;49.662;10.162;2023-05-16T00:46:17;0.05;;;0.05;;
28587;SDS011;15787;49.662;10.162;2023-05-16T00:48:51;0.00;;;0.00;;
28587;SDS011;15787;49.662;10.162;2023-05-16T00:51:24;0.00;;;0.00;;
28587;SDS011;15787;49.662;10.162;2023-05-16T00:53:57;0.00;;;0.00;;
28587;SDS011;15787;49.662;10.162;2023-05-16T00:56:32;0.00;;;0.00;;
28587;SDS011;15787;49.662;10.162;2023-05-16T00:59:06;0.00;;;0.00;;
28587;SDS011;15787;49.662;10.162;2023-05-16T01:01:40;0.00;;;0.00;;
28587;SDS011;15787;49.662;10.162;2023-05-16T01:04:18;0.00;;;0.00;;
28587;SDS011;15787;49.662;10.162;2023-05-16T01:06:52;0.00;;;0.00;;
28587;SDS011;15787;49.662;10.162;2023-05-16T01:09:26;0.00;;;0.00;;
28587;SDS011;15787;49.662;10.162;2023-05-16T01:12:04;0.00;;;0.00;;
28587;SDS011;15787;49.662;10.162;2023-05-16T01:14:45;0.00;;;0.00;;
28587;SDS011;15787;49.662;10.162;2023-05-16T01:17:26;0.00;;;0.00;;
28587;SDS011;15787;49.662;10.162;2023-05-16T01:20:08;0.00;;;0.00;;
28587;SDS011;15787;49.662;10.162;2023-05-16T01:22:51;2.88;;;2.65;;
28587;SDS011;15787;49.662;10.162;2023-05-16T01:25:37;0.05;;;0.05;;
28587;SDS011;15787;49.662;10.162;2023-05-16T01:28:19;0.00;;;0.00;;
28587;SDS011;15787;49.662;10.162;2023-05-16T01:30:53;0.25;;;0.25;;
28587;SDS011;15787;49.662;10.162;2023-05-16T01:33:27;0.30;;;0.30;;
28587;SDS011;15787;49.662;10.162;2023-05-16T01:36:02;0.20;;;0.20;;
28587;SDS011;15787;49.662;10.162;2023-05-16T01:38:44;0.15;;;0.15;;
28587;SDS011;15787;49.662;10.162;2023-05-16T01:41:28;0.10;;;0.10;;
28587;SDS011;15787;49.662;10.162;2023-05-16T01:44:18;0.08;;;0.08;;
28587;SDS011;15787;49.662;10.162;2023-05-16T01:46:57;0.00;;;0.00;;
28587;SDS011;15787;49.662;10.162;2023-05-16T01:49:34;0.10;;;0.10;;
28587;SDS011;15787;49.662;10.162;2023-05-16T01:52:12;0.00;;;0.00;;
28587;SDS011;15787;49.662;10.162;2023-05-16T01:54:49;0.00;;;0.00;;
28587;SDS011;15787;49.662;10.162;2023-05-16T01:57:25;0.40;;;0.40;;
28587;SDS011;15787;49.662;10.162;2023-05-16T02:00:02;0.00;;;0.00;;
28587;SDS011;15787;49.662;10.162;2023-05-16T02:02:44;0.00;;;0.00;;
28587;SDS011;15787;49.662;10.162;2023-05-16T02:05:20;0.00;;;0.00;;
28587;SDS011;15787;49.662;10.162;2023-05-16T02:07:53;0.00;;;0.00;;
28587;SDS011;15787;49.662;10.162;2023-05-16T02:10:27;0.00;;;0.00;;
28587;SDS011;15787;49.662;10.162;2023-05-16T02:13:00;0.00;;;0.00;;
28587;SDS011;15787;49.662;10.162;2023-05-16T02:15:35;0.00;;;0.00;;
28587;SDS011;15787;49.662;10.162;2023-05-16T02:18:08;0.00;;;0.00;;
28587;SDS011;15787;49.662;10.162;2023-05-16T02:20:42;0.28;;;0.28;;
28587;SDS011;15787;49.662;10.162;2023-05-16T02:23:15;0.00;;;0.00;;
28587;SDS011;15787;49.662;10.162;2023-05-16T02:25:48;0.00;;;0.00;;
28587;SDS011;15787;49.662;10.162;2023-05-16T02:28:21;0.00;;;0.00;;
28587;SDS011;15787;49.662;10.162;2023-05-16T02:30:57;0.00;;;0.00;;
28587;SDS011;15787;49.662;10.162;2023-05-16T02:33:30;0.00;;;0.00;;
28587;SDS011;15787;49.662;10.162;2023-05-16T02:36:04;0.00;;;0.00;;
28587;SDS011;15787;49.662;10.162;2023-05-16T02:38:37;0.38;;;0.38;;
28587;SDS011;15787;49.662;10.162;2023-05-16T02:41:10;0.00;;;0.00;;
28587;SDS011;15787;49.662;10.162;2023-05-16T02:43:44;0.00;;;0.00;;
28587;SDS011;15787;49.662;10.162;2023-05-16T02:46:23;0.00;;;0.00;;
28587;SDS011;15787;49.662;10.162;2023-05-16T02:51:32;0.10;;;0.10;;
28587;SDS011;15787;49.662;10.162;2023-05-16T02:54:05;0.00;;;0.00;;
28587;SDS011;15787;49.662;10.162;2023-05-16T02:56:40;0.00;;;0.00;;
28587;SDS011;15787;49.662;10.162;2023-05-16T02:59:13;0.00;;;0.00;;
28587;SDS011;15787;49.662;10.162;2023-05-16T03:01:48;0.00;;;0.00;;
28587;SDS011;15787;49.662;10.162;2023-05-16T03:04:22;0.00;;;0.00;;
28587;SDS011;15787;49.662;10.162;2023-05-16T03:06:55;0.00;;;0.00;;
28587;SDS011;15787;49.662;10.162;2023-05-16T03:09:31;0.00;;;0.00;;
28587;SDS011;15787;49.662;10.162;2023-05-16T03:12:05;0.00;;;0.00;;
28587;SDS011;15787;49.662;10.162;2023-05-16T03:14:41;0.00;;;0.00;;
28587;SDS011;15787;49.662;10.162;2023-05-16T03:17:16;0.00;;;0.00;;
28587;SDS011;15787;49.662;10.162;2023-05-16T03:19:49;0.00;;;0.00;;
28587;SDS011;15787;49.662;10.162;2023-05-16T03:22:23;0.00;;;0.00;;
28587;SDS011;15787;49.662;10.162;2023-05-16T03:24:56;1.10;;;1.10;;
28587;SDS011;15787;49.662;10.162;2023-05-16T03:27:29;0.00;;;0.00;;
28587;SDS011;15787;49.662;10.162;2023-05-16T03:30:08;0.00;;;0.00;;
28587;SDS011;15787;49.662;10.162;2023-05-16T03:32:43;0.22;;;0.22;;
28587;SDS011;15787;49.662;10.162;2023-05-16T03:35:19;0.00;;;0.00;;
28587;SDS011;15787;49.662;10.162;2023-05-16T03:37:53;0.38;;;0.35;;
28587;SDS011;15787;49.662;10.162;2023-05-16T03:40:27;0.00;;;0.00;;
28587;SDS011;15787;49.662;10.162;2023-05-16T03:43:00;0.22;;;0.22;;
28587;SDS011;15787;49.662;10.162;2023-05-16T03:45:36;1.35;;;1.35;;
28587;SDS011;15787;49.662;10.162;2023-05-16T03:48:11;0.00;;;0.00;;
28587;SDS011;15787;49.662;10.162;2023-05-16T03:50:58;0.00;;;0.00;;
28587;SDS011;15787;49.662;10.162;2023-05-16T03:53:35;0.00;;;0.00;;
28587;SDS011;15787;49.662;10.162;2023-05-16T03:56:12;0.00;;;0.00;;
28587;SDS011;15787;49.662;10.162;2023-05-16T03:58:45;0.00;;;0.00;;
28587;SDS011;15787;49.662;10.162;2023-05-16T04:01:18;0.00;;;0.00;;
28587;SDS011;15787;49.662;10.162;2023-05-16T04:03:55;0.00;;;0.00;;
28587;SDS011;15787;49.662;10.162;2023-05-16T04:06:28;0.00;;;0.00;;
28587;SDS011;15787;49.662;10.162;2023-05-16T04:09:07;0.00;;;0.00;;
28587;SDS011;15787;49.662;10.162;2023-05-16T04:11:41;0.00;;;0.00;;
28587;SDS011;15787;49.662;10.162;2023-05-16T04:14:20;0.03;;;0.03;;
28587;SDS011;15787;49.662;10.162;2023-05-16T04:16:54;0.00;;;0.00;;
28587;SDS011;15787;49.662;10.162;2023-05-16T04:19:28;0.00;;;0.00;;
28587;SDS011;15787;49.662;10.162;2023-05-16T04:22:01;0.00;;;0.00;;
28587;SDS011;15787;49.662;10.162;2023-05-16T04:24:35;0.00;;;0.00;;
28587;SDS011;15787;49.662;10.162;2023-05-16T04:27:08;0.00;;;0.00;;
28587;SDS011;15787;49.662;10.162;2023-05-16T04:29:41;0.00;;;0.00;;
28587;SDS011;15787;49.662;10.162;2023-05-16T04:32:15;0.00;;;0.00;;
28587;SDS011;15787;49.662;10.162;2023-05-16T04:34:50;0.00;;;0.00;;
28587;SDS011;15787;49.662;10.162;2023-05-16T04:37:24;0.05;;;0.05;;
28587;SDS011;15787;49.662;10.162;2023-05-16T04:39:58;0.00;;;0.00;;
28587;SDS011;15787;49.662;10.162;2023-05-16T04:42:31;0.10;;;0.10;;
28587;SDS011;15787;49.662;10.162;2023-05-16T04:49:44;0.00;;;0.00;;
28587;SDS011;15787;49.662;10.162;2023-05-16T04:59:54;0.00;;;0.00;;
28587;SDS011;15787;49.662;10.162;2023-05-16T05:02:25;0.00;;;0.00;;
28587;SDS011;15787;49.662;10.162;2023-05-16T05:04:59;0.08;;;0.08;;
28587;SDS011;15787;49.662;10.162;2023-05-16T05:07:33;0.00;;;0.00;;
28587;SDS011;15787;49.662;10.162;2023-05-16T05:10:06;0.00;;;0.00;;
28587;SDS011;15787;49.662;10.162;2023-05-16T05:12:41;0.00;;;0.00;;
28587;SDS011;15787;49.662;10.162;2023-05-16T05:15:14;0.70;;;0.70;;
28587;SDS011;15787;49.662;10.162;2023-05-16T05:17:48;0.85;;;0.85;;
28587;SDS011;15787;49.662;10.162;2023-05-16T05:20:21;0.10;;;0.10;;
28587;SDS011;15787;49.662;10.162;2023-05-16T05:22:54;0.00;;;0.00;;
28587;SDS011;15787;49.662;10.162;2023-05-16T05:25:28;0.00;;;0.00;;
28587;SDS011;15787;49.662;10.162;2023-05-16T05:28:09;0.00;;;0.00;;
28587;SDS011;15787;49.662;10.162;2023-05-16T05:30:42;1.65;;;1.13;;
28587;SDS011;15787;49.662;10.162;2023-05-16T05:33:17;0.30;;;0.30;;
28587;SDS011;15787;49.662;10.162;2023-05-16T05:35:51;0.00;;;0.00;;
28587;SDS011;15787;49.662;10.162;2023-05-16T05:38:24;0.77;;;0.77;;
28587;SDS011;15787;49.662;10.162;2023-05-16T05:40:58;0.00;;;0.00;;
28587;SDS011;15787;49.662;10.162;2023-05-16T05:43:35;0.60;;;0.57;;
28587;SDS011;15787;49.662;10.162;2023-05-16T05:46:09;0.00;;;0.00;;
28587;SDS011;15787;49.662;10.162;2023-05-16T05:48:42;0.00;;;0.00;;
28587;SDS011;15787;49.662;10.162;2023-05-16T05:51:15;0.00;;;0.00;;
28587;SDS011;15787;49.662;10.162;2023-05-16T05:53:48;0.00;;;0.00;;
28587;SDS011;15787;49.662;10.162;2023-05-16T05:56:25;14.88;;;2.17;;
28587;SDS011;15787;49.662;10.162;2023-05-16T05:58:59;0.00;;;0.00;;
28587;SDS011;15787;49.662;10.162;2023-05-16T06:01:33;0.10;;;0.10;;
28587;SDS011;15787;49.662;10.162;2023-05-16T06:04:06;0.05;;;0.05;;
28587;SDS011;15787;49.662;10.162;2023-05-16T06:06:41;0.08;;;0.08;;
28587;SDS011;15787;49.662;10.162;2023-05-16T06:09:16;0.00;;;0.00;;
28587;SDS011;15787;49.662;10.162;2023-05-16T06:11:52;0.00;;;0.00;;
28587;SDS011;15787;49.662;10.162;2023-05-16T06:14:27;0.00;;;0.00;;
28587;SDS011;15787;49.662;10.162;2023-05-16T06:17:00;0.30;;;0.22;;
28587;SDS011;15787;49.662;10.162;2023-05-16T06:19:33;0.00;;;0.00;;
28587;SDS011;15787;49.662;10.162;2023-05-16T06:22:07;0.00;;;0.00;;
28587;SDS011;15787;49.662;10.162;2023-05-16T06:24:41;0.00;;;0.00;;
28587;SDS011;15787;49.662;10.162;2023-05-16T06:27:14;0.10;;;0.10;;
28587;SDS011;15787;49.662;10.162;2023-05-16T06:29:49;0.00;;;0.00;;
28587;SDS011;15787;49.662;10.162;2023-05-16T06:32:22;0.00;;;0.00;;
28587;SDS011;15787;49.662;10.162;2023-05-16T06:34:55;0.00;;;0.00;;
28587;SDS011;15787;49.662;10.162;2023-05-16T06:37:29;0.00;;;0.00;;
28587;SDS011;15787;49.662;10.162;2023-05-16T06:40:02;0.00;;;0.00;;
28587;SDS011;15787;49.662;10.162;2023-05-16T06:42:36;0.70;;;0.70;;
28587;SDS011;15787;49.662;10.162;2023-05-16T06:45:12;0.00;;;0.00;;
28587;SDS011;15787;49.662;10.162;2023-05-16T06:47:45;0.05;;;0.05;;
28587;SDS011;15787;49.662;10.162;2023-05-16T06:50:18;0.00;;;0.00;;
28587;SDS011;15787;49.662;10.162;2023-05-16T06:52:52;13.93;;;8.00;;
28587;SDS011;15787;49.662;10.162;2023-05-16T06:55:25;15.02;;;7.88;;
28587;SDS011;15787;49.662;10.162;2023-05-16T06:57:59;11.90;;;7.90;;
28587;SDS011;15787;49.662;10.162;2023-05-16T07:00:33;11.27;;;7.75;;
28587;SDS011;15787;49.662;10.162;2023-05-16T07:03:06;12.00;;;7.88;;
28587;SDS011;15787;49.662;10.162;2023-05-16T07:05:39;13.35;;;8.38;;
28587;SDS011;15787;49.662;10.162;2023-05-16T07:08:13;11.88;;;8.10;;
28587;SDS011;15787;49.662;10.162;2023-05-16T07:10:46;17.38;;;8.70;;
28587;SDS011;15787;49.662;10.162;2023-05-16T07:13:19;16.55;;;9.75;;
28587;SDS011;15787;49.662;10.162;2023-05-16T07:15:54;14.82;;;8.98;;
28587;SDS011;15787;49.662;10.162;2023-05-16T07:18:27;14.10;;;8.45;;
28587;SDS011;15787;49.662;10.162;2023-05-16T07:21:00;13.77;;;9.75;;
28587;SDS011;15787;49.662;10.162;2023-05-16T07:23:33;15.73;;;10.27;;
28587;SDS011;15787;49.662;10.162;2023-05-16T07:26:06;15.35;;;10.45;;
28587;SDS011;15787;49.662;10.162;2023-05-16T07:28:39;13.65;;;9.18;;
28587;SDS011;15787;49.662;10.162;2023-05-16T07:31:14;14.45;;;9.85;;
28587;SDS011;15787;49.662;10.162;2023-05-16T07:33:48;16.30;;;10.02;;
28587;SDS011;15787;49.662;10.162;2023-05-16T07:36:21;16.05;;;10.85;;
28587;SDS011;15787;49.662;10.162;2023-05-16T07:38:54;18.13;;;11.52;;
28587;SDS011;15787;49.662;10.162;2023-05-16T07:41:27;18.35;;;10.63;;
28587;SDS011;15787;49.662;10.162;2023-05-16T07:44:00;17.33;;;10.80;;
28587;SDS011;15787;49.662;10.162;2023-05-16T07:46:35;14.63;;;10.52;;
28587;SDS011;15787;49.662;10.162;2023-05-16T07:49:08;15.57;;;11.30;;
28587;SDS011;15787;49.662;10.162;2023-05-16T07:51:41;20.30;;;12.43;;
28587;SDS011;15787;49.662;10.162;2023-05-16T07:54:14;16.13;;;11.20;;
28587;SDS011;15787;49.662;10.162;2023-05-16T07:56:48;17.63;;;12.07;;
28587;SDS011;15787;49.662;10.162;2023-05-16T07:59:22;18.27;;;12.45;;
28587;SDS011;15787;49.662;10.162;2023-05-16T08:01:57;17.63;;;12.27;;
28587;SDS011;15787;49.662;10.162;2023-05-16T08:04:30;20.80;;;12.60;;
28587;SDS011;15787;49.662;10.162;2023-05-16T08:07:03;19.08;;;12.43;;
28587;SDS011;15787;49.662;10.162;2023-05-16T08:09:36;15.05;;;11.88;;
28587;SDS011;15787;49.662;10.162;2023-05-16T08:12:10;15.15;;;11.35;;
28587;SDS011;15787;49.662;10.162;2023-05-16T08:14:44;16.50;;;11.30;;
28587;SDS011;15787;49.662;10.162;2023-05-16T08:17:18;20.92;;;11.73;;
28587;SDS011;15787;49.662;10.162;2023-05-16T08:19:51;18.15;;;11.13;;
28587;SDS011;15787;49.662;10.162;2023-05-16T08:22:24;14.77;;;10.77;;
28587;SDS011;15787;49.662;10.162;2023-05-16T08:24:57;18.10;;;10.90;;
28587;SDS011;15787;49.662;10.162;2023-05-16T08:27:31;14.50;;;10.48;;
28587;SDS011;15787;49.662;10.162;2023-05-16T08:30:04;17.98;;;12.23;;
28587;SDS011;15787;49.662;10.162;2023-05-16T08:32:40;16.75;;;10.98;;
28587;SDS011;15787;49.662;10.162;2023-05-16T08:35:14;17.05;;;11.18;;
28587;SDS011;15787;49.662;10.162;2023-05-16T08:37:47;16.33;;;10.70;;
28587;SDS011;15787;49.662;10.162;2023-05-16T08:40:21;13.48;;;9.90;;
28587;SDS011;15787;49.662;10.162;2023-05-16T08:42:57;16.73;;;10.07;;
28587;SDS011;15787;49.662;10.162;2023-05-16T08:45:30;16.67;;;10.98;;
28587;SDS011;15787;49.662;10.162;2023-05-16T08:48:05;14.13;;;10.48;;
28587;SDS011;15787;49.662;10.162;2023-05-16T08:50:41;14.82;;;10.75;;
28587;SDS011;15787;49.662;10.162;2023-05-16T08:53:16;13.52;;;10.13;;
28587;SDS011;15787;49.662;10.162;2023-05-16T08:55:55;12.70;;;8.50;;
28587;SDS011;15787;49.662;10.162;2023-05-16T08:58:30;15.00;;;8.48;;
28587;SDS011;15787;49.662;10.162;2023-05-16T09:01:03;14.50;;;9.02;;
28587;SDS011;15787;49.662;10.162;2023-05-16T09:03:40;13.68;;;8.75;;
28587;SDS011;15787;49.662;10.162;2023-05-16T09:06:15;13.40;;;8.32;;
28587;SDS011;15787;49.662;10.162;2023-05-16T09:08:48;11.43;;;8.10;;
28587;SDS011;15787;49.662;10.162;2023-05-16T09:11:21;11.60;;;7.78;;
28587;SDS011;15787;49.662;10.162;2023-05-16T09:13:54;13.48;;;8.57;;
28587;SDS011;15787;49.662;10.162;2023-05-16T09:16:27;13.57;;;7.82;;
28587;SDS011;15787;49.662;10.162;2023-05-16T09:19:01;16.83;;;8.32;;
28587;SDS011;15787;49.662;10.162;2023-05-16T09:21:35;11.90;;;7.95;;
28587;SDS011;15787;49.662;10.162;2023-05-16T09:24:08;13.02;;;8.88;;
28587;SDS011;15787;49.662;10.162;2023-05-16T09:26:41;13.40;;;7.50;;
28587;SDS011;15787;49.662;10.162;2023-05-16T09:29:16;10.55;;;7.40;;
28587;SDS011;15787;49.662;10.162;2023-05-16T09:31:50;10.73;;;8.30;;
28587;SDS011;15787;49.662;10.162;2023-05-16T09:34:24;10.60;;;7.80;;
28587;SDS011;15787;49.662;10.162;2023-05-16T09:36:58;12.27;;;7.13;;
28587;SDS011;15787;49.662;10.162;2023-05-16T09:39:30;11.48;;;7.32;;
28587;SDS011;15787;49.662;10.162;2023-05-16T09:42:03;10.80;;;6.60;;
28587;SDS011;15787;49.662;10.162;2023-05-16T09:44:37;12.95;;;8.00;;
28587;SDS011;15787;49.662;10.162;2023-05-16T09:47:10;14.40;;;7.97;;
28587;SDS011;15787;49.662;10.162;2023-05-16T09:49:47;12.65;;;7.45;;
28587;SDS011;15787;49.662;10.162;2023-05-16T09:52:25;15.10;;;8.32;;
28587;SDS011;15787;49.662;10.162;2023-05-16T09:54:58;13.07;;;7.68;;
28587;SDS011;15787;49.662;10.162;2023-05-16T09:57:36;13.15;;;7.82;;
28587;SDS011;15787;49.662;10.162;2023-05-16T10:00:11;14.30;;;8.63;;
28587;SDS011;15787;49.662;10.162;2023-05-16T10:02:44;14.57;;;8.05;;
28587;SDS011;15787;49.662;10.162;2023-05-16T10:05:19;12.27;;;7.88;;
28587;SDS011;15787;49.662;10.162;2023-05-16T10:07:52;13.10;;;7.72;;
28587;SDS011;15787;49.662;10.162;2023-05-16T10:10:27;12.65;;;7.88;;
28587;SDS011;15787;49.662;10.162;2023-05-16T10:13:02;15.48;;;8.30;;
28587;SDS011;15787;49.662;10.162;2023-05-16T10:15:38;11.40;;;7.70;;
28587;SDS011;15787;49.662;10.162;2023-05-16T10:18:12;10.73;;;7.00;;
28587;SDS011;15787;49.662;10.162;2023-05-16T10:20:50;12.32;;;7.10;;
28587;SDS011;15787;49.662;10.162;2023-05-16T10:23:26;10.43;;;7.10;;
28587;SDS011;15787;49.662;10.162;2023-05-16T10:26:03;15.27;;;6.93;;
28587;SDS011;15787;49.662;10.162;2023-05-16T10:28:37;11.48;;;6.63;;
28587;SDS011;15787;49.662;10.162;2023-05-16T10:31:12;13.75;;;7.07;;
28587;SDS011;15787;49.662;10.162;2023-05-16T10:33:46;10.57;;;7.30;;
28587;SDS011;15787;49.662;10.162;2023-05-16T10:36:20;12.60;;;7.75;;
28587;SDS011;15787;49.662;10.162;2023-05-16T10:38:54;16.70;;;9.05;;
28587;SDS011;15787;49.662;10.162;2023-05-16T10:41:28;11.32;;;7.10;;
28587;SDS011;15787;49.662;10.162;2023-05-16T10:44:01;11.57;;;6.95;;
28587;SDS011;15787;49.662;10.162;2023-05-16T10:46:35;12.18;;;7.13;;
28587;SDS011;15787;49.662;10.162;2023-05-16T10:49:20;9.60;;;6.55;;
28587;SDS011;15787;49.662;10.162;2023-05-16T10:52:05;9.80;;;5.93;;
28587;SDS011;15787;49.662;10.162;2023-05-16T10:54:40;10.57;;;6.22;;
28587;SDS011;15787;49.662;10.162;2023-05-16T10:57:15;8.35;;;4.97;;
28587;SDS011;15787;49.662;10.162;2023-05-16T10:59:51;7.57;;;4.35;;
28587;SDS011;15787;49.662;10.162;2023-05-16T11:02:25;7.30;;;4.10;;
28587;SDS011;15787;49.662;10.162;2023-05-16T11:05:00;6.07;;;3.08;;
28587;SDS011;15787;49.662;10.162;2023-05-16T11:07:35;5.90;;;2.95;;
28587;SDS011;15787;49.662;10.162;2023-05-16T11:10:09;4.95;;;3.20;;
28587;SDS011;15787;49.662;10.162;2023-05-16T11:12:47;5.43;;;2.97;;
28587;SDS011;15787;49.662;10.162;2023-05-16T11:15:24;5.97;;;3.03;;
28587;SDS011;15787;49.662;10.162;2023-05-16T11:18:06;4.43;;;2.70;;
28587;SDS011;15787;49.662;10.162;2023-05-16T11:20:41;5.22;;;2.70;;
28587;SDS011;15787;49.662;10.162;2023-05-16T11:23:22;3.53;;;2.67;;
28587;SDS011;15787;49.662;10.162;2023-05-16T11:25:57;4.20;;;2.50;;
28587;SDS011;15787;49.662;10.162;2023-05-16T11:28:31;6.38;;;3.05;;
28587;SDS011;15787;49.662;10.162;2023-05-16T11:31:04;2.95;;;2.22;;
28587;SDS011;15787;49.662;10.162;2023-05-16T11:33:39;3.63;;;2.60;;
28587;SDS011;15787;49.662;10.162;2023-05-16T11:36:12;3.80;;;2.55;;
28587;SDS011;15787;49.662;10.162;2023-05-16T11:38:48;4.05;;;2.58;;
28587;SDS011;15787;49.662;10.162;2023-05-16T11:41:21;5.30;;;2.17;;
28587;SDS011;15787;49.662;10.162;2023-05-16T11:43:54;6.00;;;2.38;;
28587;SDS011;15787;49.662;10.162;2023-05-16T11:46:27;4.68;;;2.30;;
28587;SDS011;15787;49.662;10.162;2023-05-16T11:49:00;3.03;;;1.98;;
28587;SDS011;15787;49.662;10.162;2023-05-16T11:51:36;3.35;;;1.95;;
28587;SDS011;15787;49.662;10.162;2023-05-16T11:54:11;2.53;;;1.50;;
28587;SDS011;15787;49.662;10.162;2023-05-16T11:56:44;2.72;;;1.90;;
28587;SDS011;15787;49.662;10.162;2023-05-16T11:59:18;2.30;;;1.60;;
28587;SDS011;15787;49.662;10.162;2023-05-16T12:01:52;3.22;;;1.80;;
28587;SDS011;15787;49.662;10.162;2023-05-16T12:04:24;2.38;;;1.58;;
28587;SDS011;15787;49.662;10.162;2023-05-16T12:06:58;2.97;;;1.52;;
28587;SDS011;15787;49.662;10.162;2023-05-16T12:09:34;2.83;;;1.73;;
28587;SDS011;15787;49.662;10.162;2023-05-16T12:12:07;3.33;;;1.75;;
28587;SDS011;15787;49.662;10.162;2023-05-16T12:14:41;1.83;;;1.08;;
28587;SDS011;15787;49.662;10.162;2023-05-16T12:17:15;1.40;;;0.98;;
28587;SDS011;15787;49.662;10.162;2023-05-16T12:19:49;1.60;;;1.00;;
28587;SDS011;15787;49.662;10.162;2023-05-16T12:22:23;1.63;;;1.10;;
28587;SDS011;15787;49.662;10.162;2023-05-16T12:24:59;1.92;;;1.00;;
28587;SDS011;15787;49.662;10.162;2023-05-16T12:27:32;1.40;;;0.93;;
28587;SDS011;15787;49.662;10.162;2023-05-16T12:30:07;1.55;;;1.00;;
28587;SDS011;15787;49.662;10.162;2023-05-16T12:32:41;1.08;;;0.85;;
28587;SDS011;15787;49.662;10.162;2023-05-16T12:35:14;1.27;;;0.80;;
28587;SDS011;15787;49.662;10.162;2023-05-16T12:37:49;1.42;;;1.15;;
28587;SDS011;15787;49.662;10.162;2023-05-16T12:40:28;2.05;;;1.10;;
28587;SDS011;15787;49.662;10.162;2023-05-16T12:43:15;3.05;;;1.10;;
28587;SDS011;15787;49.662;10.162;2023-05-16T12:46:18;2.97;;;1.20;;
28587;SDS011;15787;49.662;10.162;2023-05-16T12:49:18;4.80;;;2.00;;
28587;SDS011;15787;49.662;10.162;2023-05-16T12:52:18;6.50;;;1.70;;
28587;SDS011;15787;49.662;10.162;2023-05-16T12:55:56;2.00;;;1.40;;
28587;SDS011;15787;49.662;10.162;2023-05-16T13:01:28;4.32;;;1.85;;
28587;SDS011;15787;49.662;10.162;2023-05-16T13:04:19;3.05;;;1.73;;
28587;SDS011;15787;49.662;10.162;2023-05-16T13:06:56;2.90;;;1.60;;
28587;SDS011;15787;49.662;10.162;2023-05-16T13:10:39;5.38;;;1.95;;
28587;SDS011;15787;49.662;10.162;2023-05-16T13:27:45;6.10;;;1.70;;
28587;SDS011;15787;49.662;10.162;2023-05-16T13:30:54;3.80;;;1.35;;
28587;SDS011;15787;49.662;10.162;2023-05-16T13:34:11;2.00;;;1.40;;
28587;SDS011;15787;49.662;10.162;2023-05-16T13:37:16;4.63;;;1.38;;
28587;SDS011;15787;49.662;10.162;2023-05-16T13:39:50;2.42;;;1.50;;
28587;SDS011;15787;49.662;10.162;2023-05-16T13:42:25;3.38;;;1.98;;
28587;SDS011;15787;49.662;10.162;2023-05-16T13:44:57;4.45;;;1.40;;
28587;SDS011;15787;49.662;10.162;2023-05-16T13:47:30;2.35;;;1.38;;
28587;SDS011;15787;49.662;10.162;2023-05-16T13:50:04;4.80;;;1.40;;
28587;SDS011;15787;49.662;10.162;2023-05-16T13:52:40;3.88;;;1.95;;
28587;SDS011;15787;49.662;10.162;2023-05-16T13:55:15;2.28;;;1.00;;
28587;SDS011;15787;49.662;10.162;2023-05-16T13:57:49;2.80;;;1.25;;
28587;SDS011;15787;49.662;10.162;2023-05-16T14:00:22;5.63;;;1.20;;
28587;SDS011;15787;49.662;10.162;2023-05-16T14:03:14;5.40;;;1.20;;
28587;SDS011;15787;49.662;10.162;2023-05-16T14:05:47;2.22;;;1.10;;
28587;SDS011;15787;49.662;10.162;2023-05-16T14:08:20;2.78;;;1.23;;
28587;SDS011;15787;49.662;10.162;2023-05-16T14:10:57;3.10;;;1.23;;
28587;SDS011;15787;49.662;10.162;2023-05-16T14:13:31;2.58;;;1.17;;
28587;SDS011;15787;49.662;10.162;2023-05-16T14:16:04;3.47;;;1.52;;
28587;SDS011;15787;49.662;10.162;2023-05-16T14:18:37;3.35;;;1.00;;
28587;SDS011;15787;49.662;10.162;2023-05-16T14:21:11;3.88;;;1.30;;
28587;SDS011;15787;49.662;10.162;2023-05-16T14:23:44;4.50;;;1.38;;
28587;SDS011;15787;49.662;10.162;2023-05-16T14:26:18;5.97;;;1.20;;
28587;SDS011;15787;49.662;10.162;2023-05-16T14:28:55;6.72;;;1.20;;
28587;SDS011;15787;49.662;10.162;2023-05-16T14:31:28;5.18;;;1.27;;
28587;SDS011;15787;49.662;10.162;2023-05-16T14:34:01;6.72;;;1.50;;
28587;SDS011;15787;49.662;10.162;2023-05-16T14:36:34;3.70;;;1.45;;
28587;SDS011;15787;49.662;10.162;2023-05-16T14:39:07;4.07;;;1.45;;
28587;SDS011;15787;49.662;10.162;2023-05-16T14:41:42;5.13;;;1.70;;
28587;SDS011;15787;49.662;10.162;2023-05-16T14:44:14;3.65;;;1.00;;
28587;SDS011;15787;49.662;10.162;2023-05-16T14:46:48;6.10;;;2.30;;
28587;SDS011;15787;49.662;10.162;2023-05-16T14:49:20;6.32;;;1.55;;
28587;SDS011;15787;49.662;10.162;2023-05-16T14:51:54;3.20;;;1.40;;
28587;SDS011;15787;49.662;10.162;2023-05-16T14:54:27;4.10;;;1.30;;
28587;SDS011;15787;49.662;10.162;2023-05-16T14:57:01;6.10;;;1.25;;
28587;SDS011;15787;49.662;10.162;2023-05-16T14:59:35;5.82;;;1.38;;
28587;SDS011;15787;49.662;10.162;2023-05-16T15:02:08;4.70;;;1.40;;
28587;SDS011;15787;49.662;10.162;2023-05-16T15:04:41;4.78;;;1.30;;
28587;SDS011;15787;49.662;10.162;2023-05-16T15:07:14;5.35;;;1.20;;
28587;SDS011;15787;49.662;10.162;2023-05-16T15:09:47;4.47;;;1.00;;
28587;SDS011;15787;49.662;10.162;2023-05-16T15:12:21;4.20;;;1.40;;
28587;SDS011;15787;49.662;10.162;2023-05-16T15:14:55;7.80;;;2.75;;
28587;SDS011;15787;49.662;10.162;2023-05-16T15:17:27;3.95;;;1.67;;
28587;SDS011;15787;49.662;10.162;2023-05-16T15:20:00;6.57;;;2.17;;
28587;SDS011;15787;49.662;10.162;2023-05-16T15:22:34;3.92;;;1.45;;
28587;SDS011;15787;49.662;10.162;2023-05-16T15:25:07;7.97;;;1.60;;
28587;SDS011;15787;49.662;10.162;2023-05-16T15:27:42;8.98;;;1.95;;
28587;SDS011;15787;49.662;10.162;2023-05-16T15:30:15;7.70;;;3.70;;
28587;SDS011;15787;49.662;10.162;2023-05-16T15:32:49;4.78;;;1.55;;
28587;SDS011;15787;49.662;10.162;2023-05-16T15:35:22;4.60;;;1.95;;
28587;SDS011;15787;49.662;10.162;2023-05-16T15:37:54;5.97;;;1.90;;
28587;SDS011;15787;49.662;10.162;2023-05-16T15:40:30;5.90;;;1.55;;
28587;SDS011;15787;49.662;10.162;2023-05-16T15:43:04;5.28;;;1.80;;
28587;SDS011;15787;49.662;10.162;2023-05-16T15:45:37;6.15;;;2.45;;
28587;SDS011;15787;49.662;10.162;2023-05-16T15:48:17;7.40;;;2.22;;
28587;SDS011;15787;49.662;10.162;2023-05-16T15:50:50;4.45;;;1.58;;